createdAt,value
2018-07-24T00:00:56.303Z,20.90
2018-07-24T00:03:25.472Z,20.80
2018-07-24T00:05:54.581Z,20.80
2018-07-24T00:08:23.753Z,20.80
2018-07-24T00:10:52.880Z,20.80
2018-07-24T00:13:21.945Z,20.80
2018-07-24T00:15:51.178Z,20.80
2018-07-24T00:18:20.297Z,20.70
2018-07-24T00:23:18.397Z,20.70
2018-07-24T00:25:47.505Z,20.70
2018-07-24T00:28:16.624Z,20.60
2018-07-24T00:30:45.799Z,20.50
2018-07-24T00:33:14.903Z,20.50
2018-07-24T00:35:44.329Z,20.40
2018-07-24T00:38:13.558Z,20.30
2018-07-24T00:40:42.846Z,20.30
2018-07-24T00:43:12.048Z,20.30
2018-07-24T00:45:41.369Z,20.20
2018-07-24T00:48:10.658Z,20.20
2018-07-24T00:50:39.854Z,20.20
2018-07-24T00:53:08.959Z,20.10
2018-07-24T00:55:38.034Z,20.10
2018-07-24T00:58:07.181Z,20.00
2018-07-24T01:00:36.277Z,20.00
2018-07-24T01:03:05.580Z,20.00
2018-07-24T01:05:34.656Z,19.90
2018-07-24T01:08:03.714Z,19.90
2018-07-24T01:10:32.819Z,19.90
2018-07-24T01:13:01.905Z,19.70
2018-07-24T01:15:31.160Z,19.70
2018-07-24T01:18:00.291Z,19.60
2018-07-24T01:20:31.511Z,19.60
2018-07-24T01:23:01.251Z,19.60
2018-07-24T01:25:30.631Z,19.60
2018-07-24T01:27:59.710Z,19.70
2018-07-24T01:30:28.863Z,19.70
2018-07-24T01:32:57.923Z,19.60
2018-07-24T01:35:26.974Z,19.60
2018-07-24T01:37:56.159Z,19.60
2018-07-24T01:40:25.287Z,19.50
2018-07-24T01:42:54.673Z,19.50
2018-07-24T01:45:23.786Z,19.60
2018-07-24T01:47:52.922Z,19.50
2018-07-24T01:50:22.154Z,19.50
2018-07-24T01:52:51.415Z,19.50
2018-07-24T01:55:21.606Z,19.40
2018-07-24T01:57:50.795Z,19.40
2018-07-24T02:00:20.001Z,19.40
2018-07-24T02:02:49.142Z,19.40
2018-07-24T02:05:18.310Z,19.40
2018-07-24T02:07:47.431Z,19.30
2018-07-24T02:12:45.426Z,19.20
2018-07-24T02:15:14.590Z,19.20
2018-07-24T02:17:43.735Z,19.20
2018-07-24T02:20:12.872Z,19.30
2018-07-24T02:22:41.950Z,19.20
2018-07-24T02:25:11.046Z,19.10
2018-07-24T02:27:40.136Z,19.10
2018-07-24T02:30:09.306Z,19.10
2018-07-24T02:32:38.436Z,19.10
2018-07-24T02:35:07.550Z,19.10
2018-07-24T02:37:36.650Z,19.10
2018-07-24T02:40:05.777Z,19.10
2018-07-24T02:42:34.885Z,19.10
2018-07-24T02:45:04.064Z,19.10
2018-07-24T02:47:33.143Z,19.10
2018-07-24T02:52:31.181Z,19.00
2018-07-24T02:55:00.359Z,18.90
2018-07-24T02:57:30.199Z,18.90
2018-07-24T02:59:59.515Z,18.90
2018-07-24T03:02:28.603Z,19.00
2018-07-24T03:04:57.784Z,19.00
2018-07-24T03:07:26.881Z,19.00
2018-07-24T03:09:56.063Z,19.00
2018-07-24T03:12:25.149Z,18.90
2018-07-24T03:14:54.305Z,18.90
2018-07-24T03:17:23.421Z,18.90
2018-07-24T03:19:52.497Z,18.90
2018-07-24T03:22:21.531Z,18.90
2018-07-24T03:24:50.623Z,18.90
2018-07-24T03:27:19.716Z,19.00
2018-07-24T03:29:48.802Z,19.00
2018-07-24T03:32:17.953Z,19.00
2018-07-24T03:34:47.050Z,19.00
2018-07-24T03:37:16.243Z,19.00
2018-07-24T03:39:45.441Z,19.00
2018-07-24T03:42:14.459Z,19.00
2018-07-24T03:44:43.600Z,19.10
2018-07-24T03:47:12.759Z,19.00
2018-07-24T03:49:41.984Z,19.00
2018-07-24T03:52:11.204Z,19.00
2018-07-24T03:54:40.406Z,19.00
2018-07-24T03:57:10.005Z,18.90
2018-07-24T03:59:39.115Z,19.00
2018-07-24T04:02:08.400Z,19.00
2018-07-24T04:04:37.573Z,19.10
2018-07-24T04:07:06.730Z,19.10
2018-07-24T04:09:35.953Z,19.10
2018-07-24T04:12:05.088Z,19.10
2018-07-24T04:14:34.173Z,19.20
2018-07-24T04:17:03.351Z,19.20
2018-07-24T04:19:32.452Z,19.20
2018-07-24T04:22:01.531Z,19.20
2018-07-24T04:24:30.741Z,19.30
2018-07-24T04:26:59.832Z,19.30
2018-07-24T04:29:29.004Z,19.40
2018-07-24T04:31:58.166Z,19.40
2018-07-24T04:34:27.410Z,19.40
2018-07-24T04:36:56.490Z,19.50
2018-07-24T04:39:25.602Z,19.40
2018-07-24T04:41:54.885Z,19.50
2018-07-24T04:44:24.346Z,19.50
2018-07-24T04:46:54.148Z,19.60
2018-07-24T04:49:23.331Z,19.60
2018-07-24T04:51:52.640Z,19.60
2018-07-24T04:54:22.415Z,19.70
2018-07-24T04:56:51.675Z,19.80
2018-07-24T04:59:20.796Z,19.90
2018-07-24T05:01:49.999Z,20.00
2018-07-24T05:04:19.204Z,20.10
2018-07-24T05:06:48.332Z,20.10
2018-07-24T05:09:18.209Z,20.20
2018-07-24T05:11:47.409Z,20.20
2018-07-24T05:14:16.563Z,20.30
2018-07-24T05:16:45.760Z,20.40
2018-07-24T05:19:14.825Z,20.50
2018-07-24T05:21:43.899Z,20.50
2018-07-24T05:24:12.971Z,20.60
2018-07-24T05:26:42.092Z,20.70
2018-07-24T05:29:11.237Z,20.80
2018-07-24T05:31:40.480Z,20.90
2018-07-24T05:34:09.583Z,21.00
2018-07-24T05:36:38.718Z,21.10
2018-07-24T05:39:10.491Z,21.30
2018-07-24T05:41:39.754Z,21.70
2018-07-24T05:44:09.126Z,22.30
2018-07-24T05:46:38.221Z,23.00
2018-07-24T05:49:07.403Z,23.60
2018-07-24T05:51:36.521Z,24.10
2018-07-24T05:54:05.745Z,24.40
2018-07-24T05:56:35.859Z,24.50
2018-07-24T05:59:05.308Z,24.50
2018-07-24T06:01:34.802Z,24.60
2018-07-24T06:04:04.553Z,24.80
2018-07-24T06:06:34.348Z,25.20
2018-07-24T06:09:06.339Z,25.50
2018-07-24T06:11:35.565Z,25.70
2018-07-24T06:14:05.848Z,25.90
2018-07-24T06:16:35.817Z,26.00
2018-07-24T06:19:05.829Z,26.20
2018-07-24T06:21:35.752Z,26.50
2018-07-24T06:24:05.958Z,26.60
2018-07-24T06:26:35.808Z,26.40
2018-07-24T06:29:05.859Z,26.10
2018-07-24T06:31:35.919Z,25.90
2018-07-24T06:34:05.595Z,25.90
2018-07-24T06:36:39.599Z,25.70
2018-07-24T06:39:11.434Z,25.40
2018-07-24T06:41:41.357Z,25.10
2018-07-24T06:44:11.821Z,25.10
2018-07-24T06:46:41.243Z,25.00
2018-07-24T06:49:10.531Z,24.90
2018-07-24T06:51:40.622Z,24.80
2018-07-24T06:54:10.185Z,24.70
2018-07-24T06:56:39.457Z,24.80
2018-07-24T06:59:08.824Z,24.70
2018-07-24T07:01:37.964Z,24.70
2018-07-24T07:04:07.249Z,24.70
2018-07-24T07:06:36.366Z,24.70
2018-07-24T07:09:08.841Z,24.70
2018-07-24T07:11:38.017Z,24.70
2018-07-24T07:14:07.406Z,24.80
2018-07-24T07:16:36.570Z,24.80
2018-07-24T07:19:05.657Z,24.90
2018-07-24T07:21:34.824Z,24.90
2018-07-24T07:24:03.945Z,25.00
2018-07-24T07:26:32.991Z,25.10
2018-07-24T07:29:02.078Z,25.10
2018-07-24T07:31:31.204Z,25.20
2018-07-24T07:34:00.252Z,25.20
2018-07-24T07:36:29.305Z,25.40
2018-07-24T07:38:58.547Z,25.40
2018-07-24T07:41:27.652Z,25.40
2018-07-24T07:43:56.791Z,25.50
2018-07-24T07:46:26.020Z,25.60
2018-07-24T07:48:55.443Z,25.60
2018-07-24T07:51:24.593Z,25.70
2018-07-24T07:53:53.826Z,25.70
2018-07-24T07:56:23.268Z,25.80
2018-07-24T07:58:52.743Z,25.80
2018-07-24T08:01:22.024Z,25.80
2018-07-24T08:03:51.459Z,25.80
2018-07-24T08:06:20.744Z,25.90
2018-07-24T08:08:49.919Z,25.90
2018-07-24T08:11:19.068Z,26.10
2018-07-24T08:13:48.285Z,26.10
2018-07-24T08:16:17.378Z,26.20
2018-07-24T08:18:46.623Z,26.30
2018-07-24T08:21:15.867Z,26.30
2018-07-24T08:23:45.052Z,26.30
2018-07-24T08:26:14.185Z,26.40
2018-07-24T08:28:52.804Z,26.50
2018-07-24T08:31:22.179Z,26.60
2018-07-24T08:33:51.931Z,26.70
2018-07-24T08:36:21.017Z,26.70
2018-07-24T08:38:50.196Z,26.70
2018-07-24T08:41:19.302Z,26.90
2018-07-24T08:43:48.424Z,26.90
2018-07-24T08:46:17.601Z,26.80
2018-07-24T08:48:46.651Z,26.90
2018-07-24T08:53:45.171Z,27.20
2018-07-24T08:56:13.741Z,27.30
2018-07-24T08:58:42.836Z,27.30
2018-07-24T09:01:12.078Z,27.40
2018-07-24T09:03:41.331Z,27.50
2018-07-24T09:06:10.417Z,27.60
2018-07-24T09:08:39.696Z,27.70
2018-07-24T09:11:09.351Z,27.70
2018-07-24T09:13:38.587Z,27.80
2018-07-24T09:16:08.384Z,27.80
2018-07-24T09:18:37.765Z,27.90
2018-07-24T09:21:08.287Z,27.80
2018-07-24T09:23:38.535Z,27.80
2018-07-24T09:26:09.062Z,27.70
2018-07-24T09:28:39.036Z,27.80
2018-07-24T09:33:39.698Z,27.90
2018-07-24T09:36:09.312Z,28.00
2018-07-24T09:38:39.425Z,27.90
2018-07-24T09:41:10.203Z,28.00
2018-07-24T09:43:40.205Z,28.10
2018-07-24T09:46:11.722Z,28.20
2018-07-24T09:48:41.574Z,28.20
2018-07-24T09:53:40.391Z,28.40
2018-07-24T09:56:10.435Z,28.50
2018-07-24T09:58:40.044Z,28.40
2018-07-24T10:01:17.411Z,28.50
2018-07-24T10:03:46.701Z,28.60
2018-07-24T10:06:16.182Z,28.70
2018-07-24T10:08:45.362Z,28.70
2018-07-24T10:11:14.723Z,28.80
2018-07-24T10:13:43.916Z,28.80
2018-07-24T10:16:13.554Z,28.90
2018-07-24T10:18:42.959Z,29.00
2018-07-24T10:21:14.672Z,29.20
2018-07-24T10:23:43.998Z,29.20
2018-07-24T10:26:14.081Z,29.20
2018-07-24T10:28:43.571Z,29.20
2018-07-24T10:31:13.556Z,29.20
2018-07-24T10:33:43.171Z,29.00
2018-07-24T10:36:13.625Z,29.00
2018-07-24T10:38:43.566Z,29.10
2018-07-24T10:41:12.955Z,29.10
2018-07-24T10:43:42.089Z,29.30
2018-07-24T10:46:11.328Z,29.50
2018-07-24T10:48:40.606Z,29.60
2018-07-24T10:51:09.833Z,29.70
2018-07-24T10:53:39.156Z,29.70
2018-07-24T10:56:08.322Z,29.70
2018-07-24T10:58:37.444Z,29.80
2018-07-24T11:01:06.624Z,29.90
2018-07-24T11:03:35.880Z,29.90
2018-07-24T11:06:05.022Z,29.80
2018-07-24T11:08:34.137Z,29.90
2018-07-24T11:11:03.360Z,29.90
2018-07-24T11:13:32.544Z,29.90
2018-07-24T11:16:01.630Z,30.00
2018-07-24T11:18:30.926Z,30.10
2018-07-24T11:23:29.250Z,30.20
2018-07-24T11:25:58.550Z,30.10
2018-07-24T11:28:28.004Z,30.30
2018-07-24T11:30:57.273Z,30.20
2018-07-24T11:33:26.895Z,30.20
2018-07-24T11:35:56.874Z,30.10
2018-07-24T11:38:26.159Z,30.10
2018-07-24T11:40:55.885Z,30.20
2018-07-24T11:43:25.803Z,30.00
2018-07-24T11:45:55.237Z,29.90
2018-07-24T11:48:25.458Z,30.00
2018-07-24T11:50:54.603Z,30.00
2018-07-24T11:53:23.935Z,30.10
2018-07-24T11:55:53.105Z,30.20
2018-07-24T11:58:22.251Z,30.30
2018-07-24T12:00:51.394Z,30.40
2018-07-24T12:03:20.691Z,30.40
2018-07-24T12:05:50.108Z,30.50
2018-07-24T12:08:19.234Z,30.60
2018-07-24T12:10:49.585Z,30.40
2018-07-24T12:13:18.927Z,30.40
2018-07-24T12:15:48.051Z,30.40
2018-07-24T12:18:17.184Z,30.30
2018-07-24T12:20:46.313Z,30.40
2018-07-24T12:23:15.412Z,30.50
2018-07-24T12:25:44.855Z,30.70
2018-07-24T12:28:14.045Z,30.90
2018-07-24T12:30:43.407Z,30.90
2018-07-24T12:33:12.486Z,31.00
2018-07-24T12:35:41.856Z,31.10
2018-07-24T12:38:10.971Z,31.10
2018-07-24T12:40:40.647Z,31.20
2018-07-24T12:43:10.141Z,31.20
2018-07-24T12:45:39.374Z,31.40
2018-07-24T12:48:08.645Z,31.30
2018-07-24T12:50:37.939Z,31.30
2018-07-24T12:53:07.387Z,31.40
2018-07-24T12:55:37.058Z,31.50
2018-07-24T12:58:06.583Z,31.50
2018-07-24T13:00:36.009Z,31.50
2018-07-24T13:03:05.415Z,31.50
2018-07-24T13:05:34.590Z,31.50
2018-07-24T13:08:03.688Z,31.30
2018-07-24T13:10:34.265Z,31.30
2018-07-24T13:13:03.556Z,31.20
2018-07-24T13:15:32.694Z,31.20
2018-07-24T13:18:01.937Z,31.20
2018-07-24T13:20:31.303Z,31.20
2018-07-24T13:23:00.651Z,31.30
2018-07-24T13:25:30.754Z,31.10
2018-07-24T13:27:59.913Z,31.20
2018-07-24T13:30:29.254Z,31.40
2018-07-24T13:32:58.385Z,31.50
2018-07-24T13:35:27.548Z,31.60
2018-07-24T13:37:56.895Z,31.70
2018-07-24T13:40:26.056Z,31.80
2018-07-24T13:42:55.262Z,31.80
2018-07-24T13:45:24.542Z,31.90
2018-07-24T13:47:53.869Z,32.00
2018-07-24T13:50:23.200Z,32.00
2018-07-24T13:52:52.713Z,31.90
2018-07-24T13:55:22.146Z,31.90
2018-07-24T13:57:51.400Z,31.90
2018-07-24T14:00:20.995Z,31.90
2018-07-24T14:02:50.310Z,31.70
2018-07-24T14:05:19.616Z,31.80
2018-07-24T14:07:51.338Z,31.90
2018-07-24T14:10:20.623Z,31.90
2018-07-24T14:12:49.929Z,32.00
2018-07-24T14:15:19.925Z,32.10
2018-07-24T14:17:49.195Z,32.20
2018-07-24T14:20:19.752Z,32.20
2018-07-24T14:22:49.134Z,32.30
2018-07-24T14:25:19.133Z,32.40
2018-07-24T14:27:48.513Z,32.20
2018-07-24T14:30:17.648Z,32.10
2018-07-24T14:32:46.767Z,32.10
2018-07-24T14:35:16.077Z,32.30
2018-07-24T14:37:45.281Z,32.40
2018-07-24T14:40:14.455Z,32.50
2018-07-24T14:42:43.854Z,32.60
2018-07-24T14:45:12.997Z,32.60
2018-07-24T14:47:42.046Z,32.70
2018-07-24T14:50:11.279Z,32.70
2018-07-24T14:52:40.398Z,32.60
2018-07-24T14:55:09.538Z,32.50
2018-07-24T14:57:38.742Z,32.40
2018-07-24T15:00:08.524Z,32.40
2018-07-24T15:02:37.686Z,32.40
2018-07-24T15:05:07.141Z,32.50
2018-07-24T15:07:36.298Z,32.50
2018-07-24T15:10:05.893Z,32.50
2018-07-24T15:12:35.061Z,32.60
2018-07-24T15:15:04.858Z,32.30
2018-07-24T15:17:33.999Z,32.40
2018-07-24T15:20:03.311Z,32.30
2018-07-24T15:22:32.577Z,32.30
2018-07-24T15:25:02.296Z,32.30
2018-07-24T15:27:32.125Z,32.40
2018-07-24T15:32:30.717Z,32.40
2018-07-24T15:35:00.395Z,32.20
2018-07-24T15:37:29.797Z,32.20
2018-07-24T15:39:59.427Z,32.10
2018-07-24T15:42:28.909Z,32.10
2018-07-24T15:44:58.072Z,32.00
2018-07-24T15:47:27.299Z,32.00
2018-07-24T15:49:56.477Z,32.20
2018-07-24T15:52:25.696Z,32.20
2018-07-24T15:54:54.994Z,32.40
2018-07-24T15:57:24.270Z,32.40
2018-07-24T15:59:53.565Z,32.40
2018-07-24T16:02:22.819Z,32.50
2018-07-24T16:04:51.942Z,32.30
2018-07-24T16:07:21.611Z,32.20
2018-07-24T16:09:50.901Z,32.20
2018-07-24T16:12:20.159Z,32.20
2018-07-24T16:14:49.378Z,32.40
2018-07-24T16:17:18.567Z,32.50
2018-07-24T16:19:47.778Z,32.50
2018-07-24T16:22:17.289Z,32.60
2018-07-24T16:24:46.569Z,32.60
2018-07-24T16:27:15.819Z,32.70
2018-07-24T16:29:45.273Z,32.80
2018-07-24T16:32:14.789Z,32.90
2018-07-24T16:34:44.654Z,32.80
2018-07-24T16:37:14.077Z,32.90
2018-07-24T16:39:43.694Z,32.70
2018-07-24T16:42:13.650Z,32.60
2018-07-24T16:44:43.112Z,32.60
2018-07-24T16:47:12.549Z,32.60
2018-07-24T16:49:42.041Z,32.60
2018-07-24T16:52:11.322Z,32.60
2018-07-24T16:54:40.521Z,32.70
2018-07-24T16:57:09.878Z,32.60
2018-07-24T16:59:39.097Z,32.50
2018-07-24T17:02:08.273Z,32.50
2018-07-24T17:04:37.383Z,32.40
2018-07-24T17:07:06.650Z,32.40
2018-07-24T17:09:35.989Z,32.30
2018-07-24T17:12:05.113Z,32.40
2018-07-24T17:14:34.277Z,32.40
2018-07-24T17:17:03.561Z,32.40
2018-07-24T17:19:33.022Z,32.40
2018-07-24T17:22:02.149Z,32.20
2018-07-24T17:24:31.365Z,32.20
2018-07-24T17:27:00.571Z,32.10
2018-07-24T17:29:29.960Z,32.00
2018-07-24T17:31:59.350Z,31.90
2018-07-24T17:34:28.616Z,31.80
2018-07-24T17:36:57.806Z,31.80
2018-07-24T17:39:27.699Z,31.80
2018-07-24T17:41:57.233Z,31.80
2018-07-24T17:44:26.794Z,31.60
2018-07-24T17:46:56.156Z,31.60
2018-07-24T17:49:25.815Z,31.60
2018-07-24T17:51:55.474Z,31.70
2018-07-24T17:54:25.098Z,31.70
2018-07-24T17:56:54.867Z,31.70
2018-07-24T17:59:25.467Z,31.70
2018-07-24T18:01:55.128Z,31.80
2018-07-24T18:04:24.587Z,31.90
2018-07-24T18:06:53.980Z,31.90
2018-07-24T18:09:23.306Z,32.00
2018-07-24T18:11:52.491Z,32.10
2018-07-24T18:14:21.689Z,32.20
2018-07-24T18:16:50.937Z,32.20
2018-07-24T18:19:20.294Z,32.20
2018-07-24T18:21:49.561Z,32.10
2018-07-24T18:24:18.720Z,32.00
2018-07-24T18:26:47.949Z,32.00
2018-07-24T18:29:17.173Z,31.70
2018-07-24T18:31:46.372Z,31.40
2018-07-24T18:34:15.561Z,31.20
2018-07-24T18:36:44.813Z,30.90
2018-07-24T18:39:13.963Z,30.60
2018-07-24T18:41:43.253Z,30.30
2018-07-24T18:44:12.471Z,30.20
2018-07-24T18:46:41.640Z,29.90
2018-07-24T18:49:11.097Z,29.80
2018-07-24T18:51:40.617Z,29.60
2018-07-24T18:54:10.368Z,29.50
2018-07-24T18:56:39.971Z,29.40
2018-07-24T18:59:09.737Z,29.30
2018-07-24T19:01:39.351Z,29.20
2018-07-24T19:04:10.344Z,29.10
2018-07-24T19:06:39.902Z,28.90
2018-07-24T19:09:11.188Z,28.90
2018-07-24T19:11:41.040Z,28.80
2018-07-24T19:14:10.830Z,28.70
2018-07-24T19:16:40.795Z,28.60
2018-07-24T19:19:10.743Z,28.50
2018-07-24T19:21:40.539Z,28.40
2018-07-24T19:24:10.584Z,28.30
2018-07-24T19:26:40.470Z,28.20
2018-07-24T19:29:10.092Z,28.10
2018-07-24T19:31:40.182Z,28.00
2018-07-24T19:34:09.872Z,27.80
2018-07-24T19:36:39.732Z,27.80
2018-07-24T19:39:11.437Z,27.70
2018-07-24T19:41:41.887Z,27.60
2018-07-24T19:44:12.219Z,27.60
2018-07-24T19:46:42.670Z,27.50
2018-07-24T19:49:12.195Z,27.40
2018-07-24T19:51:41.594Z,27.30
2018-07-24T19:54:11.071Z,27.30
2018-07-24T19:56:40.467Z,27.20
2018-07-24T20:01:39.820Z,27.00
2018-07-24T20:04:09.244Z,27.00
2018-07-24T20:06:39.296Z,26.90
2018-07-24T20:09:10.819Z,26.90
2018-07-24T20:11:40.112Z,26.80
2018-07-24T20:14:09.636Z,26.80
2018-07-24T20:16:38.981Z,26.70
2018-07-24T20:19:08.394Z,26.60
2018-07-24T20:21:37.678Z,26.60
2018-07-24T20:24:06.816Z,26.50
2018-07-24T20:26:36.602Z,26.50
2018-07-24T20:29:05.902Z,26.40
2018-07-24T20:31:35.238Z,26.40
2018-07-24T20:34:04.401Z,26.30
2018-07-24T20:36:33.523Z,26.20
2018-07-24T20:41:31.761Z,26.10
2018-07-24T20:44:01.193Z,26.10
2018-07-24T20:46:30.633Z,26.00
2018-07-24T20:49:00.104Z,26.00
2018-07-24T20:51:29.385Z,25.90
2018-07-24T20:53:58.741Z,25.90
2018-07-24T20:56:28.707Z,25.80
2018-07-24T20:58:58.123Z,25.80
2018-07-24T21:01:27.592Z,25.80
2018-07-24T21:03:57.152Z,25.70
2018-07-24T21:06:26.991Z,25.70
2018-07-24T21:08:56.265Z,25.60
2018-07-24T21:11:25.893Z,25.60
2018-07-24T21:13:55.410Z,25.60
2018-07-24T21:16:24.744Z,25.50
2018-07-24T21:18:54.262Z,25.50
2018-07-24T21:21:23.721Z,25.50
2018-07-24T21:23:52.888Z,25.50
2018-07-24T21:26:22.012Z,25.40
2018-07-24T21:28:51.301Z,25.30
2018-07-24T21:31:20.621Z,25.30
2018-07-24T21:33:50.704Z,25.30
2018-07-24T21:36:19.857Z,25.20
2018-07-24T21:38:49.025Z,25.20
2018-07-24T21:41:18.256Z,25.10
2018-07-24T21:43:47.379Z,25.20
2018-07-24T21:46:16.629Z,25.20
2018-07-24T21:48:46.911Z,25.10
2018-07-24T21:51:16.742Z,25.10
2018-07-24T21:53:45.783Z,25.00
2018-07-24T21:56:14.872Z,25.00
2018-07-24T21:58:43.965Z,25.00
2018-07-24T22:01:13.974Z,25.00
2018-07-24T22:03:43.563Z,24.90
2018-07-24T22:06:12.718Z,24.90
2018-07-24T22:08:41.957Z,24.80
2018-07-24T22:11:11.033Z,24.70
2018-07-24T22:13:40.333Z,24.70
2018-07-24T22:16:09.759Z,24.70
2018-07-24T22:18:38.919Z,24.70
2018-07-24T22:21:08.572Z,24.60
2018-07-24T22:23:38.790Z,24.60
2018-07-24T22:26:08.874Z,24.50
2018-07-24T22:28:38.026Z,24.50
2018-07-24T22:31:07.190Z,24.50
2018-07-24T22:33:36.379Z,24.50
2018-07-24T22:36:05.562Z,24.50
2018-07-24T22:38:34.684Z,24.50
2018-07-24T22:41:03.748Z,24.40
2018-07-24T22:43:32.842Z,24.40
2018-07-24T22:46:01.890Z,24.40
2018-07-24T22:48:30.971Z,24.30
2018-07-24T22:51:00.146Z,24.30
2018-07-24T22:53:29.187Z,24.30
2018-07-24T22:55:58.576Z,24.30
2018-07-24T22:58:27.627Z,24.30
2018-07-24T23:00:56.770Z,24.30
2018-07-24T23:03:25.933Z,24.30
2018-07-24T23:05:55.033Z,24.20
2018-07-24T23:08:24.133Z,24.20
2018-07-24T23:10:53.243Z,24.20
2018-07-24T23:13:22.309Z,24.10
2018-07-24T23:15:51.428Z,24.20
2018-07-24T23:18:20.534Z,24.20
2018-07-24T23:20:49.784Z,24.10
2018-07-24T23:23:18.994Z,24.10
2018-07-24T23:25:48.414Z,24.00
2018-07-24T23:28:18.830Z,24.00
2018-07-24T23:30:48.952Z,24.00
2018-07-24T23:33:18.125Z,24.00
2018-07-24T23:35:47.279Z,24.00
2018-07-24T23:38:16.436Z,23.90
2018-07-24T23:40:45.543Z,23.90
2018-07-24T23:43:14.688Z,23.90
2018-07-24T23:45:44.797Z,23.90
2018-07-24T23:48:13.830Z,23.90
2018-07-24T23:50:42.892Z,23.80
2018-07-24T23:53:11.990Z,23.90
2018-07-24T23:55:41.132Z,23.80
2018-07-24T23:58:10.267Z,23.80
